KLM55T EHRD-EHAM
Flight info
| Callsign | KLM55T |
|---|---|
| Flight time | 0h 10m |
| Altitude | 6000 |
| Route | RTM DCT SOKSI/N0274F070 DCT AM006 DCT DIBRU/N0271F060 DCT AM084/N0275F070 |
| Aircraft | A20N/M-SDE2E3FGHIRWXY/LB1 |
Departure
| Time | 2026-05-04 19:27 |
|---|---|
| Airport | Rotterdam The Hague Airport (EHRD) |
Arrival
| Time | 2026-05-04 19:37 |
|---|---|
| Airport | Amsterdam Airport Schiphol (EHAM) |
| Time | Latitude | Longitude | Altitude | Speed | Heading |
|---|---|---|---|---|---|
| 2026-05-04 18:58 | 51.94963 | 4.43642 | -6 ft | 0 kts | 327° |
| 2026-05-04 19:20 | 51.94964 | 4.43640 | -6 ft | 1 kts | 327° |
| 2026-05-04 19:20 | 51.94978 | 4.43626 | -6 ft | 0 kts | 327° |
| 2026-05-04 19:20 | 51.94979 | 4.43626 | -6 ft | 1 kts | 335° |
| 2026-05-04 19:21 | 51.95008 | 4.43648 | -6 ft | 7 kts | 49° |
| 2026-05-04 19:21 | 51.95057 | 4.43695 | -6 ft | 9 kts | 350° |
| 2026-05-04 19:21 | 51.95122 | 4.43635 | -6 ft | 12 kts | 328° |
| 2026-05-04 19:21 | 51.95199 | 4.43555 | -6 ft | 14 kts | 327° |
| 2026-05-04 19:22 | 51.95276 | 4.43515 | -6 ft | 11 kts | 24° |
| 2026-05-04 19:22 | 51.95329 | 4.43617 | -6 ft | 13 kts | 57° |
| 2026-05-04 19:22 | 51.95385 | 4.43758 | -6 ft | 16 kts | 56° |
| 2026-05-04 19:22 | 51.95447 | 4.43925 | -6 ft | 19 kts | 63° |
| 2026-05-04 19:23 | 51.95527 | 4.44111 | -6 ft | 22 kts | 56° |
| 2026-05-04 19:23 | 51.95613 | 4.44328 | -6 ft | 24 kts | 58° |
| 2026-05-04 19:23 | 51.95707 | 4.44560 | -6 ft | 25 kts | 57° |
| 2026-05-04 19:23 | 51.95806 | 4.44807 | -6 ft | 27 kts | 58° |
| 2026-05-04 19:24 | 51.95910 | 4.45069 | -6 ft | 28 kts | 57° |
| 2026-05-04 19:24 | 51.96018 | 4.45336 | -6 ft | 29 kts | 57° |
| 2026-05-04 19:24 | 51.96119 | 4.45590 | -6 ft | 15 kts | 57° |
| 2026-05-04 19:24 | 51.96207 | 4.45631 | -5 ft | 15 kts | 325° |
| 2026-05-04 19:25 | 51.96261 | 4.45480 | -5 ft | 17 kts | 269° |
| 2026-05-04 19:25 | 51.96203 | 4.45309 | -5 ft | 19 kts | 236° |
| 2026-05-04 19:25 | 51.96177 | 4.45243 | -5 ft | 0 kts | 237° |
| 2026-05-04 19:26 | 51.96133 | 4.45131 | -5 ft | 49 kts | 237° |
| 2026-05-04 19:26 | 51.95779 | 4.44249 | -5 ft | 133 kts | 237° |
| 2026-05-04 19:26 | 51.95174 | 4.42776 | 310 ft | 169 kts | 238° |
| 2026-05-04 19:27 | 51.94493 | 4.41112 | 772 ft | 189 kts | 240° |
| 2026-05-04 19:27 | 51.93728 | 4.39164 | 1231 ft | 223 kts | 239° |
| 2026-05-04 19:27 | 51.92897 | 4.36807 | 1647 ft | 260 kts | 252° |
| 2026-05-04 19:27 | 51.92672 | 4.33762 | 2039 ft | 290 kts | 279° |
| 2026-05-04 19:28 | 51.93353 | 4.30550 | 2423 ft | 317 kts | 303° |
| 2026-05-04 19:28 | 51.94890 | 4.27850 | 2757 ft | 331 kts | 326° |
| 2026-05-04 19:28 | 51.96923 | 4.26293 | 2853 ft | 320 kts | 348° |
| 2026-05-04 19:28 | 51.99107 | 4.26187 | 2948 ft | 311 kts | 11° |
| 2026-05-04 19:29 | 52.01118 | 4.27386 | 3003 ft | 307 kts | 22° |
| 2026-05-04 19:29 | 52.03148 | 4.28404 | 3023 ft | 305 kts | 13° |
| 2026-05-04 19:29 | 52.05211 | 4.29105 | 3025 ft | 314 kts | 12° |
| 2026-05-04 19:29 | 52.07327 | 4.29806 | 3023 ft | 301 kts | 12° |
| 2026-05-04 19:30 | 52.09305 | 4.30516 | 3019 ft | 282 kts | 13° |
| 2026-05-04 19:30 | 52.11147 | 4.31225 | 3032 ft | 263 kts | 14° |
| 2026-05-04 19:30 | 52.12867 | 4.31918 | 3030 ft | 247 kts | 14° |
| 2026-05-04 19:30 | 52.14558 | 4.32616 | 3033 ft | 255 kts | 15° |
| 2026-05-04 19:31 | 52.16276 | 4.33331 | 3021 ft | 254 kts | 15° |
| 2026-05-04 19:31 | 52.17976 | 4.34038 | 3025 ft | 252 kts | 15° |
| 2026-05-04 19:31 | 52.19689 | 4.34753 | 3023 ft | 256 kts | 14° |
| 2026-05-04 19:31 | 52.21398 | 4.35523 | 3027 ft | 254 kts | 22° |
| 2026-05-04 19:32 | 52.22819 | 4.37198 | 3032 ft | 256 kts | 51° |
| 2026-05-04 19:32 | 52.23570 | 4.39823 | 3031 ft | 258 kts | 80° |
| 2026-05-04 19:32 | 52.23518 | 4.42668 | 3021 ft | 246 kts | 97° |
| 2026-05-04 19:32 | 52.23236 | 4.45351 | 2933 ft | 235 kts | 99° |
| 2026-05-04 19:33 | 52.22946 | 4.47899 | 2847 ft | 225 kts | 99° |
| 2026-05-04 19:33 | 52.22680 | 4.50356 | 2760 ft | 215 kts | 98° |
| 2026-05-04 19:33 | 52.22443 | 4.52705 | 2668 ft | 206 kts | 98° |
| 2026-05-04 19:33 | 52.22350 | 4.54998 | 2514 ft | 198 kts | 82° |
| 2026-05-04 19:34 | 52.22691 | 4.57178 | 2342 ft | 201 kts | 65° |
| 2026-05-04 19:34 | 52.23312 | 4.59186 | 2079 ft | 193 kts | 58° |
| 2026-05-04 19:34 | 52.24009 | 4.61015 | 1833 ft | 195 kts | 56° |
| 2026-05-04 19:34 | 52.24736 | 4.62895 | 1582 ft | 190 kts | 57° |
| 2026-05-04 19:35 | 52.25395 | 4.64608 | 1329 ft | 169 kts | 56° |
| 2026-05-04 19:35 | 52.25986 | 4.66140 | 1097 ft | 151 kts | 55° |
| 2026-05-04 19:35 | 52.26519 | 4.67522 | 903 ft | 137 kts | 56° |
| 2026-05-04 19:35 | 52.26993 | 4.68755 | 728 ft | 121 kts | 55° |
| 2026-05-04 19:36 | 52.27415 | 4.69853 | 563 ft | 106 kts | 53° |
| 2026-05-04 19:36 | 52.27818 | 4.70885 | 429 ft | 116 kts | 53° |
| 2026-05-04 19:36 | 52.28237 | 4.71985 | 278 ft | 113 kts | 54° |
| 2026-05-04 19:36 | 52.28663 | 4.73092 | 164 ft | 112 kts | 54° |
| 2026-05-04 19:37 | 52.29085 | 4.74195 | 51 ft | 113 kts | 54° |
| 2026-05-04 19:37 | 52.29479 | 4.75216 | 4 ft | 97 kts | 53° |
| 2026-05-04 19:37 | 52.29728 | 4.75794 | -3 ft | 33 kts | 24° |
| 2026-05-04 19:37 | 52.29823 | 4.75838 | -2 ft | 9 kts | 27° |
| 2026-05-04 19:38 | 52.29853 | 4.75864 | -2 ft | 0 kts | 28° |
| 2026-05-04 19:41 | 52.29886 | 4.75892 | -2 ft | 11 kts | 28° |
| 2026-05-04 19:41 | 52.29963 | 4.75960 | -1 ft | 14 kts | 30° |
| 2026-05-04 19:41 | 52.30036 | 4.76097 | -1 ft | 18 kts | 61° |
| 2026-05-04 19:41 | 52.30112 | 4.76301 | -1 ft | 24 kts | 56° |
| 2026-05-04 19:42 | 52.30206 | 4.76545 | -1 ft | 27 kts | 58° |
| 2026-05-04 19:42 | 52.30310 | 4.76811 | -1 ft | 27 kts | 56° |
| 2026-05-04 19:42 | 52.30412 | 4.77039 | -2 ft | 17 kts | 17° |
| 2026-05-04 19:42 | 52.30478 | 4.77030 | -1 ft | 9 kts | 27° |
| 2026-05-04 19:43 | 52.30529 | 4.77125 | -1 ft | 13 kts | 55° |
| 2026-05-04 19:43 | 52.30583 | 4.77259 | -1 ft | 14 kts | 40° |
| 2026-05-04 19:43 | 52.30636 | 4.77320 | -1 ft | 4 kts | 8° |
| 2026-05-04 19:43 | 52.30675 | 4.77289 | -2 ft | 8 kts | 329° |
| 2026-05-04 19:44 | 52.30704 | 4.77280 | -2 ft | 3 kts | 2° |
| 2026-05-04 19:44 | 52.30708 | 4.77280 | -2 ft | 0 kts | 2° |